sensor_id;sensor_type;location;lat;lon;timestamp;P1;durP1;ratioP1;P2;durP2;ratioP2
40052;SDS011;25758;48.200;16.338;2022-09-13T00:00:03;5.70;;;2.92;;
40052;SDS011;25758;48.200;16.338;2022-09-13T00:02:30;5.00;;;2.20;;
40052;SDS011;25758;48.200;16.338;2022-09-13T00:04:56;7.05;;;2.30;;
40052;SDS011;25758;48.200;16.338;2022-09-13T00:07:22;4.40;;;2.28;;
40052;SDS011;25758;48.200;16.338;2022-09-13T00:09:48;5.57;;;3.78;;
40052;SDS011;25758;48.200;16.338;2022-09-13T00:12:13;4.78;;;2.08;;
40052;SDS011;25758;48.200;16.338;2022-09-13T00:14:39;3.00;;;2.17;;
40052;SDS011;25758;48.200;16.338;2022-09-13T00:17:05;9.57;;;2.25;;
40052;SDS011;25758;48.200;16.338;2022-09-13T00:19:31;6.35;;;2.10;;
40052;SDS011;25758;48.200;16.338;2022-09-13T00:21:57;6.85;;;2.03;;
40052;SDS011;25758;48.200;16.338;2022-09-13T00:24:22;3.33;;;2.45;;
40052;SDS011;25758;48.200;16.338;2022-09-13T00:26:48;4.07;;;2.63;;
40052;SDS011;25758;48.200;16.338;2022-09-13T00:29:14;3.08;;;2.10;;
40052;SDS011;25758;48.200;16.338;2022-09-13T00:31:40;6.28;;;2.47;;
40052;SDS011;25758;48.200;16.338;2022-09-13T00:34:05;4.97;;;1.88;;
40052;SDS011;25758;48.200;16.338;2022-09-13T00:36:31;2.53;;;1.50;;
40052;SDS011;25758;48.200;16.338;2022-09-13T00:38:58;3.92;;;2.40;;
40052;SDS011;25758;48.200;16.338;2022-09-13T00:41:24;4.28;;;1.80;;
40052;SDS011;25758;48.200;16.338;2022-09-13T00:49:17;4.38;;;1.73;;
40052;SDS011;25758;48.200;16.338;2022-09-13T00:51:59;6.75;;;3.17;;
40052;SDS011;25758;48.200;16.338;2022-09-13T00:54:36;6.43;;;2.58;;
40052;SDS011;25758;48.200;16.338;2022-09-13T00:57:05;4.90;;;2.20;;
40052;SDS011;25758;48.200;16.338;2022-09-13T00:59:36;3.40;;;2.05;;
40052;SDS011;25758;48.200;16.338;2022-09-13T01:02:07;7.30;;;2.13;;
40052;SDS011;25758;48.200;16.338;2022-09-13T01:04:33;4.75;;;2.70;;
40052;SDS011;25758;48.200;16.338;2022-09-13T01:07:01;7.55;;;2.20;;
40052;SDS011;25758;48.200;16.338;2022-09-13T01:09:32;5.32;;;2.25;;
40052;SDS011;25758;48.200;16.338;2022-09-13T01:12:06;6.85;;;3.13;;
40052;SDS011;25758;48.200;16.338;2022-09-13T01:15:05;2.53;;;1.70;;
40052;SDS011;25758;48.200;16.338;2022-09-13T01:17:31;3.25;;;1.85;;
40052;SDS011;25758;48.200;16.338;2022-09-13T01:19:59;4.50;;;2.50;;
40052;SDS011;25758;48.200;16.338;2022-09-13T01:25:49;7.32;;;3.08;;
40052;SDS011;25758;48.200;16.338;2022-09-13T01:31:30;5.50;;;1.83;;
40052;SDS011;25758;48.200;16.338;2022-09-13T01:34:15;7.15;;;2.10;;
40052;SDS011;25758;48.200;16.338;2022-09-13T01:37:05;3.47;;;2.08;;
40052;SDS011;25758;48.200;16.338;2022-09-13T01:40:03;7.65;;;2.38;;
40052;SDS011;25758;48.200;16.338;2022-09-13T01:42:47;4.90;;;2.10;;
40052;SDS011;25758;48.200;16.338;2022-09-13T01:45:41;5.28;;;2.03;;
40052;SDS011;25758;48.200;16.338;2022-09-13T01:48:16;2.65;;;2.00;;
40052;SDS011;25758;48.200;16.338;2022-09-13T01:50:58;5.47;;;1.98;;
40052;SDS011;25758;48.200;16.338;2022-09-13T01:56:37;4.32;;;2.40;;
40052;SDS011;25758;48.200;16.338;2022-09-13T01:59:15;3.20;;;2.15;;
40052;SDS011;25758;48.200;16.338;2022-09-13T02:01:49;6.40;;;2.33;;
40052;SDS011;25758;48.200;16.338;2022-09-13T02:04:21;5.35;;;2.53;;
40052;SDS011;25758;48.200;16.338;2022-09-13T02:09:33;5.40;;;2.28;;
40052;SDS011;25758;48.200;16.338;2022-09-13T02:12:04;6.03;;;3.17;;
40052;SDS011;25758;48.200;16.338;2022-09-13T02:14:36;3.20;;;2.45;;
40052;SDS011;25758;48.200;16.338;2022-09-13T02:17:14;4.57;;;2.13;;
40052;SDS011;25758;48.200;16.338;2022-09-13T02:22:17;4.38;;;1.85;;
40052;SDS011;25758;48.200;16.338;2022-09-13T02:24:51;4.65;;;1.90;;
40052;SDS011;25758;48.200;16.338;2022-09-13T02:27:23;6.70;;;2.20;;
40052;SDS011;25758;48.200;16.338;2022-09-13T02:29:54;5.25;;;1.60;;
40052;SDS011;25758;48.200;16.338;2022-09-13T02:32:30;2.78;;;1.67;;
40052;SDS011;25758;48.200;16.338;2022-09-13T02:35:08;2.60;;;1.75;;
40052;SDS011;25758;48.200;16.338;2022-09-13T02:37:39;4.50;;;1.88;;
40052;SDS011;25758;48.200;16.338;2022-09-13T02:40:09;4.18;;;1.92;;
40052;SDS011;25758;48.200;16.338;2022-09-13T02:42:43;6.78;;;2.25;;
40052;SDS011;25758;48.200;16.338;2022-09-13T02:45:14;7.55;;;2.35;;
40052;SDS011;25758;48.200;16.338;2022-09-13T02:55:52;3.47;;;1.98;;
40052;SDS011;25758;48.200;16.338;2022-09-13T02:58:30;6.32;;;3.17;;
40052;SDS011;25758;48.200;16.338;2022-09-13T03:01:08;3.60;;;2.53;;
40052;SDS011;25758;48.200;16.338;2022-09-13T03:03:34;5.35;;;2.80;;
40052;SDS011;25758;48.200;16.338;2022-09-13T03:06:00;11.70;;;3.03;;
40052;SDS011;25758;48.200;16.338;2022-09-13T03:08:26;2.60;;;2.13;;
40052;SDS011;25758;48.200;16.338;2022-09-13T03:22:20;4.60;;;2.22;;
40052;SDS011;25758;48.200;16.338;2022-09-13T03:30:43;4.35;;;1.65;;
40052;SDS011;25758;48.200;16.338;2022-09-13T03:36:01;3.75;;;2.50;;
40052;SDS011;25758;48.200;16.338;2022-09-13T03:41:33;6.40;;;4.00;;
40052;SDS011;25758;48.200;16.338;2022-09-13T03:44:04;6.75;;;3.53;;
40052;SDS011;25758;48.200;16.338;2022-09-13T03:46:38;4.68;;;3.45;;
40052;SDS011;25758;48.200;16.338;2022-09-13T03:49:08;5.82;;;3.63;;
40052;SDS011;25758;48.200;16.338;2022-09-13T03:51:36;3.65;;;3.00;;
40052;SDS011;25758;48.200;16.338;2022-09-13T03:54:05;5.68;;;3.15;;
40052;SDS011;25758;48.200;16.338;2022-09-13T03:56:35;7.70;;;3.40;;
40052;SDS011;25758;48.200;16.338;2022-09-13T03:59:00;5.25;;;3.60;;
40052;SDS011;25758;48.200;16.338;2022-09-13T04:01:26;5.43;;;3.90;;
40052;SDS011;25758;48.200;16.338;2022-09-13T04:03:52;6.35;;;3.50;;
40052;SDS011;25758;48.200;16.338;2022-09-13T04:06:18;4.25;;;3.33;;
40052;SDS011;25758;48.200;16.338;2022-09-13T04:08:43;11.20;;;4.05;;
40052;SDS011;25758;48.200;16.338;2022-09-13T04:11:09;6.20;;;3.20;;
40052;SDS011;25758;48.200;16.338;2022-09-13T04:13:35;6.40;;;3.88;;
40052;SDS011;25758;48.200;16.338;2022-09-13T04:16:02;6.07;;;3.65;;
40052;SDS011;25758;48.200;16.338;2022-09-13T04:18:29;4.38;;;3.47;;
40052;SDS011;25758;48.200;16.338;2022-09-13T04:20:56;4.90;;;3.38;;
40052;SDS011;25758;48.200;16.338;2022-09-13T04:23:23;8.40;;;4.10;;
40052;SDS011;25758;48.200;16.338;2022-09-13T04:25:49;7.53;;;4.07;;
40052;SDS011;25758;48.200;16.338;2022-09-13T04:28:18;7.80;;;3.80;;
40052;SDS011;25758;48.200;16.338;2022-09-13T04:30:45;6.75;;;3.75;;
40052;SDS011;25758;48.200;16.338;2022-09-13T04:33:12;6.88;;;4.32;;
40052;SDS011;25758;48.200;16.338;2022-09-13T04:35:38;10.27;;;4.25;;
40052;SDS011;25758;48.200;16.338;2022-09-13T04:38:04;4.68;;;3.75;;
40052;SDS011;25758;48.200;16.338;2022-09-13T04:40:31;6.15;;;3.55;;
40052;SDS011;25758;48.200;16.338;2022-09-13T04:42:56;5.72;;;3.70;;
40052;SDS011;25758;48.200;16.338;2022-09-13T04:45:22;5.63;;;3.67;;
40052;SDS011;25758;48.200;16.338;2022-09-13T04:47:51;4.80;;;3.50;;
40052;SDS011;25758;48.200;16.338;2022-09-13T04:50:18;7.45;;;3.05;;
40052;SDS011;25758;48.200;16.338;2022-09-13T04:52:44;8.35;;;3.47;;
40052;SDS011;25758;48.200;16.338;2022-09-13T04:55:10;8.55;;;2.85;;
40052;SDS011;25758;48.200;16.338;2022-09-13T04:57:37;8.88;;;4.00;;
40052;SDS011;25758;48.200;16.338;2022-09-13T05:00:03;7.35;;;2.92;;
40052;SDS011;25758;48.200;16.338;2022-09-13T05:02:29;10.05;;;3.20;;
40052;SDS011;25758;48.200;16.338;2022-09-13T05:04:55;6.85;;;3.08;;
40052;SDS011;25758;48.200;16.338;2022-09-13T05:07:20;8.25;;;3.15;;
40052;SDS011;25758;48.200;16.338;2022-09-13T05:09:46;7.57;;;2.85;;
40052;SDS011;25758;48.200;16.338;2022-09-13T05:12:12;6.32;;;3.55;;
40052;SDS011;25758;48.200;16.338;2022-09-13T05:14:38;5.57;;;3.47;;
40052;SDS011;25758;48.200;16.338;2022-09-13T05:17:04;5.47;;;3.35;;
40052;SDS011;25758;48.200;16.338;2022-09-13T05:19:29;6.10;;;3.40;;
40052;SDS011;25758;48.200;16.338;2022-09-13T05:21:55;7.60;;;3.92;;
40052;SDS011;25758;48.200;16.338;2022-09-13T05:24:20;5.30;;;3.53;;
40052;SDS011;25758;48.200;16.338;2022-09-13T05:26:46;10.75;;;4.32;;
40052;SDS011;25758;48.200;16.338;2022-09-13T05:29:12;10.98;;;4.10;;
40052;SDS011;25758;48.200;16.338;2022-09-13T05:31:38;6.40;;;3.97;;
40052;SDS011;25758;48.200;16.338;2022-09-13T05:34:06;12.02;;;4.60;;
40052;SDS011;25758;48.200;16.338;2022-09-13T05:36:34;6.28;;;3.83;;
40052;SDS011;25758;48.200;16.338;2022-09-13T05:39:01;9.20;;;4.25;;
40052;SDS011;25758;48.200;16.338;2022-09-13T05:41:27;12.40;;;4.68;;
40052;SDS011;25758;48.200;16.338;2022-09-13T05:43:53;11.40;;;4.10;;
40052;SDS011;25758;48.200;16.338;2022-09-13T05:46:19;8.38;;;3.90;;
40052;SDS011;25758;48.200;16.338;2022-09-13T05:48:46;6.45;;;4.78;;
40052;SDS011;25758;48.200;16.338;2022-09-13T05:51:16;12.18;;;4.93;;
40052;SDS011;25758;48.200;16.338;2022-09-13T05:53:44;16.98;;;5.57;;
40052;SDS011;25758;48.200;16.338;2022-09-13T05:56:12;8.02;;;4.82;;
40052;SDS011;25758;48.200;16.338;2022-09-13T05:58:43;11.32;;;4.78;;
40052;SDS011;25758;48.200;16.338;2022-09-13T06:01:10;8.60;;;4.97;;
40052;SDS011;25758;48.200;16.338;2022-09-13T06:03:37;10.20;;;5.78;;
40052;SDS011;25758;48.200;16.338;2022-09-13T06:06:03;10.45;;;6.07;;
40052;SDS011;25758;48.200;16.338;2022-09-13T06:08:30;11.68;;;5.30;;
40052;SDS011;25758;48.200;16.338;2022-09-13T06:10:58;7.82;;;5.07;;
40052;SDS011;25758;48.200;16.338;2022-09-13T06:13:26;8.73;;;4.75;;
40052;SDS011;25758;48.200;16.338;2022-09-13T06:15:53;6.80;;;4.57;;
40052;SDS011;25758;48.200;16.338;2022-09-13T06:18:20;12.55;;;5.38;;
40052;SDS011;25758;48.200;16.338;2022-09-13T06:20:46;14.63;;;5.05;;
40052;SDS011;25758;48.200;16.338;2022-09-13T06:23:12;10.65;;;4.55;;
40052;SDS011;25758;48.200;16.338;2022-09-13T06:25:38;10.82;;;4.72;;
40052;SDS011;25758;48.200;16.338;2022-09-13T06:28:04;7.20;;;5.63;;
40052;SDS011;25758;48.200;16.338;2022-09-13T06:30:49;7.47;;;3.75;;
40052;SDS011;25758;48.200;16.338;2022-09-13T06:33:15;5.68;;;3.95;;
40052;SDS011;25758;48.200;16.338;2022-09-13T06:35:40;9.45;;;4.70;;
40052;SDS011;25758;48.200;16.338;2022-09-13T06:38:06;8.88;;;4.32;;
40052;SDS011;25758;48.200;16.338;2022-09-13T06:40:31;6.70;;;4.53;;
40052;SDS011;25758;48.200;16.338;2022-09-13T06:42:57;7.97;;;4.50;;
40052;SDS011;25758;48.200;16.338;2022-09-13T06:45:22;12.57;;;5.75;;
40052;SDS011;25758;48.200;16.338;2022-09-13T06:47:48;8.93;;;4.28;;
40052;SDS011;25758;48.200;16.338;2022-09-13T06:50:16;22.45;;;6.50;;
40052;SDS011;25758;48.200;16.338;2022-09-13T06:52:42;14.40;;;5.40;;
40052;SDS011;25758;48.200;16.338;2022-09-13T06:55:08;6.18;;;4.47;;
40052;SDS011;25758;48.200;16.338;2022-09-13T06:57:33;7.50;;;4.90;;
40052;SDS011;25758;48.200;16.338;2022-09-13T06:59:59;9.05;;;5.22;;
40052;SDS011;25758;48.200;16.338;2022-09-13T07:02:25;13.85;;;5.38;;
40052;SDS011;25758;48.200;16.338;2022-09-13T07:04:50;8.98;;;3.72;;
40052;SDS011;25758;48.200;16.338;2022-09-13T07:07:16;5.07;;;2.70;;
40052;SDS011;25758;48.200;16.338;2022-09-13T07:09:43;5.07;;;2.53;;
40052;SDS011;25758;48.200;16.338;2022-09-13T07:12:08;7.20;;;2.60;;
40052;SDS011;25758;48.200;16.338;2022-09-13T07:14:34;4.60;;;2.00;;
40052;SDS011;25758;48.200;16.338;2022-09-13T07:16:59;4.47;;;2.50;;
40052;SDS011;25758;48.200;16.338;2022-09-13T07:19:26;9.13;;;2.55;;
40052;SDS011;25758;48.200;16.338;2022-09-13T07:21:53;4.82;;;2.83;;
40052;SDS011;25758;48.200;16.338;2022-09-13T07:24:19;5.10;;;2.53;;
40052;SDS011;25758;48.200;16.338;2022-09-13T07:26:46;4.43;;;2.35;;
40052;SDS011;25758;48.200;16.338;2022-09-13T07:29:13;3.42;;;1.92;;
40052;SDS011;25758;48.200;16.338;2022-09-13T07:31:44;2.70;;;1.20;;
40052;SDS011;25758;48.200;16.338;2022-09-13T07:34:12;5.68;;;1.92;;
40052;SDS011;25758;48.200;16.338;2022-09-13T07:36:44;2.88;;;1.58;;
40052;SDS011;25758;48.200;16.338;2022-09-13T07:39:11;2.95;;;1.73;;
40052;SDS011;25758;48.200;16.338;2022-09-13T07:41:37;5.97;;;1.88;;
40052;SDS011;25758;48.200;16.338;2022-09-13T07:44:03;3.35;;;1.45;;
40052;SDS011;25758;48.200;16.338;2022-09-13T07:46:30;4.93;;;2.03;;
40052;SDS011;25758;48.200;16.338;2022-09-13T07:48:57;4.05;;;2.08;;
40052;SDS011;25758;48.200;16.338;2022-09-13T07:51:34;2.63;;;1.90;;
40052;SDS011;25758;48.200;16.338;2022-09-13T07:54:03;7.90;;;2.20;;
40052;SDS011;25758;48.200;16.338;2022-09-13T07:56:32;3.97;;;1.83;;
40052;SDS011;25758;48.200;16.338;2022-09-13T07:58:59;5.43;;;2.05;;
40052;SDS011;25758;48.200;16.338;2022-09-13T08:01:31;5.20;;;1.58;;
40052;SDS011;25758;48.200;16.338;2022-09-13T08:04:09;6.03;;;1.83;;
40052;SDS011;25758;48.200;16.338;2022-09-13T08:06:43;5.22;;;2.33;;
40052;SDS011;25758;48.200;16.338;2022-09-13T08:09:09;10.65;;;1.77;;
40052;SDS011;25758;48.200;16.338;2022-09-13T08:11:39;2.85;;;1.63;;
40052;SDS011;25758;48.200;16.338;2022-09-13T08:14:06;4.50;;;1.60;;
40052;SDS011;25758;48.200;16.338;2022-09-13T08:16:34;5.10;;;1.48;;
40052;SDS011;25758;48.200;16.338;2022-09-13T08:19:02;3.08;;;1.17;;
40052;SDS011;25758;48.200;16.338;2022-09-13T08:21:35;2.58;;;0.95;;
40052;SDS011;25758;48.200;16.338;2022-09-13T08:24:02;8.93;;;1.60;;
40052;SDS011;25758;48.200;16.338;2022-09-13T08:26:30;1.98;;;1.50;;
40052;SDS011;25758;48.200;16.338;2022-09-13T08:28:57;3.90;;;1.45;;
40052;SDS011;25758;48.200;16.338;2022-09-13T08:31:24;5.38;;;1.67;;
40052;SDS011;25758;48.200;16.338;2022-09-13T08:33:50;2.10;;;1.13;;
40052;SDS011;25758;48.200;16.338;2022-09-13T08:36:17;2.75;;;1.08;;
40052;SDS011;25758;48.200;16.338;2022-09-13T08:38:47;4.97;;;1.50;;
40052;SDS011;25758;48.200;16.338;2022-09-13T08:41:27;4.18;;;1.60;;
40052;SDS011;25758;48.200;16.338;2022-09-13T08:47:27;3.50;;;1.75;;
40052;SDS011;25758;48.200;16.338;2022-09-13T08:50:20;2.47;;;1.25;;
40052;SDS011;25758;48.200;16.338;2022-09-13T08:52:59;3.47;;;1.55;;
40052;SDS011;25758;48.200;16.338;2022-09-13T08:55:31;4.03;;;1.50;;
40052;SDS011;25758;48.200;16.338;2022-09-13T08:58:02;2.97;;;1.60;;
40052;SDS011;25758;48.200;16.338;2022-09-13T09:00:38;2.92;;;1.60;;
40052;SDS011;25758;48.200;16.338;2022-09-13T09:05:48;6.05;;;1.67;;
40052;SDS011;25758;48.200;16.338;2022-09-13T09:10:52;4.95;;;2.13;;
40052;SDS011;25758;48.200;16.338;2022-09-13T09:18:52;10.48;;;2.25;;
40052;SDS011;25758;48.200;16.338;2022-09-13T09:21:21;3.30;;;1.50;;
40052;SDS011;25758;48.200;16.338;2022-09-13T09:23:53;8.90;;;1.80;;
40052;SDS011;25758;48.200;16.338;2022-09-13T09:26:20;6.95;;;2.30;;
40052;SDS011;25758;48.200;16.338;2022-09-13T09:28:58;3.55;;;1.95;;
40052;SDS011;25758;48.200;16.338;2022-09-13T09:39:09;6.50;;;2.75;;
40052;SDS011;25758;48.200;16.338;2022-09-13T09:41:37;4.47;;;2.03;;
40052;SDS011;25758;48.200;16.338;2022-09-13T09:46:42;5.50;;;1.65;;
40052;SDS011;25758;48.200;16.338;2022-09-13T09:49:22;2.20;;;1.55;;
40052;SDS011;25758;48.200;16.338;2022-09-13T09:52:30;2.25;;;1.70;;
40052;SDS011;25758;48.200;16.338;2022-09-13T09:55:49;5.03;;;2.05;;
40052;SDS011;25758;48.200;16.338;2022-09-13T09:57:59;3.80;;;1.95;;
40052;SDS011;25758;48.200;16.338;2022-09-13T10:00:29;3.65;;;2.17;;
40052;SDS011;25758;48.200;16.338;2022-09-13T10:02:58;4.00;;;1.80;;
40052;SDS011;25758;48.200;16.338;2022-09-13T10:05:26;3.40;;;1.42;;
40052;SDS011;25758;48.200;16.338;2022-09-13T10:07:58;5.05;;;1.70;;
40052;SDS011;25758;48.200;16.338;2022-09-13T10:13:13;4.50;;;1.77;;
40052;SDS011;25758;48.200;16.338;2022-09-13T10:15:52;5.07;;;2.72;;
40052;SDS011;25758;48.200;16.338;2022-09-13T10:18:19;2.47;;;1.50;;
40052;SDS011;25758;48.200;16.338;2022-09-13T10:23:35;3.58;;;1.50;;
40052;SDS011;25758;48.200;16.338;2022-09-13T10:26:03;6.40;;;2.22;;
40052;SDS011;25758;48.200;16.338;2022-09-13T10:28:31;4.03;;;1.83;;
40052;SDS011;25758;48.200;16.338;2022-09-13T10:31:04;8.50;;;2.30;;
40052;SDS011;25758;48.200;16.338;2022-09-13T10:36:01;4.65;;;1.50;;
40052;SDS011;25758;48.200;16.338;2022-09-13T10:38:40;2.38;;;1.35;;
40052;SDS011;25758;48.200;16.338;2022-09-13T10:41:19;1.73;;;1.13;;
40052;SDS011;25758;48.200;16.338;2022-09-13T10:43:48;3.60;;;1.33;;
40052;SDS011;25758;48.200;16.338;2022-09-13T10:46:25;2.35;;;1.10;;
40052;SDS011;25758;48.200;16.338;2022-09-13T10:48:54;5.88;;;1.58;;
40052;SDS011;25758;48.200;16.338;2022-09-13T10:56:39;6.55;;;2.15;;
40052;SDS011;25758;48.200;16.338;2022-09-13T11:35:35;6.13;;;1.17;;
40052;SDS011;25758;48.200;16.338;2022-09-13T11:38:24;2.75;;;1.00;;
40052;SDS011;25758;48.200;16.338;2022-09-13T11:52:32;2.35;;;0.82;;
40052;SDS011;25758;48.200;16.338;2022-09-13T11:57:51;3.20;;;0.98;;
40052;SDS011;25758;48.200;16.338;2022-09-13T12:00:23;2.75;;;1.20;;
40052;SDS011;25758;48.200;16.338;2022-09-13T12:03:02;2.42;;;1.38;;
40052;SDS011;25758;48.200;16.338;2022-09-13T12:05:53;4.68;;;1.40;;
40052;SDS011;25758;48.200;16.338;2022-09-13T12:08:32;5.13;;;1.25;;
40052;SDS011;25758;48.200;16.338;2022-09-13T12:11:07;3.42;;;1.13;;
40052;SDS011;25758;48.200;16.338;2022-09-13T12:13:39;9.02;;;1.40;;
40052;SDS011;25758;48.200;16.338;2022-09-13T12:16:11;4.10;;;1.05;;
40052;SDS011;25758;48.200;16.338;2022-09-13T12:18:45;10.98;;;3.75;;
40052;SDS011;25758;48.200;16.338;2022-09-13T12:21:20;2.35;;;1.25;;
40052;SDS011;25758;48.200;16.338;2022-09-13T12:23:55;2.60;;;1.20;;
40052;SDS011;25758;48.200;16.338;2022-09-13T12:31:58;5.00;;;1.30;;
40052;SDS011;25758;48.200;16.338;2022-09-13T12:34:48;2.25;;;1.48;;
40052;SDS011;25758;48.200;16.338;2022-09-13T12:45:39;3.58;;;1.50;;
40052;SDS011;25758;48.200;16.338;2022-09-13T12:51:11;6.28;;;1.83;;
40052;SDS011;25758;48.200;16.338;2022-09-13T13:05:02;5.72;;;1.92;;
40052;SDS011;25758;48.200;16.338;2022-09-13T13:07:52;8.65;;;1.77;;
40052;SDS011;25758;48.200;16.338;2022-09-13T13:10:27;6.22;;;1.55;;
40052;SDS011;25758;48.200;16.338;2022-09-13T13:13:07;8.15;;;1.27;;
40052;SDS011;25758;48.200;16.338;2022-09-13T13:26:06;1.88;;;1.02;;
40052;SDS011;25758;48.200;16.338;2022-09-13T13:31:31;8.32;;;1.48;;
40052;SDS011;25758;48.200;16.338;2022-09-13T13:34:02;4.38;;;1.05;;
40052;SDS011;25758;48.200;16.338;2022-09-13T13:37:20;4.50;;;0.90;;
40052;SDS011;25758;48.200;16.338;2022-09-13T13:40:17;3.05;;;0.85;;
40052;SDS011;25758;48.200;16.338;2022-09-13T13:43:02;2.10;;;0.68;;
40052;SDS011;25758;48.200;16.338;2022-09-13T13:45:42;2.65;;;0.95;;
40052;SDS011;25758;48.200;16.338;2022-09-13T13:48:35;1.42;;;0.50;;
40052;SDS011;25758;48.200;16.338;2022-09-13T13:51:16;1.10;;;0.30;;
40052;SDS011;25758;48.200;16.338;2022-09-13T13:53:48;2.00;;;0.40;;
40052;SDS011;25758;48.200;16.338;2022-09-13T13:56:33;1.23;;;0.40;;
40052;SDS011;25758;48.200;16.338;2022-09-13T14:01:43;1.77;;;1.02;;
40052;SDS011;25758;48.200;16.338;2022-09-13T14:13:07;3.10;;;0.88;;
40052;SDS011;25758;48.200;16.338;2022-09-13T14:18:19;2.60;;;1.30;;
40052;SDS011;25758;48.200;16.338;2022-09-13T14:21:24;3.50;;;1.35;;
40052;SDS011;25758;48.200;16.338;2022-09-13T14:26:53;2.15;;;0.95;;
40052;SDS011;25758;48.200;16.338;2022-09-13T14:29:23;4.65;;;1.60;;
40052;SDS011;25758;48.200;16.338;2022-09-13T14:31:53;2.35;;;0.93;;
40052;SDS011;25758;48.200;16.338;2022-09-13T14:34:27;3.30;;;1.33;;
40052;SDS011;25758;48.200;16.338;2022-09-13T14:36:57;5.00;;;1.30;;
40052;SDS011;25758;48.200;16.338;2022-09-13T14:39:25;10.02;;;1.10;;
40052;SDS011;25758;48.200;16.338;2022-09-13T14:42:05;2.33;;;1.20;;
40052;SDS011;25758;48.200;16.338;2022-09-13T14:44:37;1.67;;;0.85;;
40052;SDS011;25758;48.200;16.338;2022-09-13T14:50:21;2.83;;;0.70;;
40052;SDS011;25758;48.200;16.338;2022-09-13T14:52:51;4.30;;;0.60;;
40052;SDS011;25758;48.200;16.338;2022-09-13T14:55:23;2.05;;;0.68;;
40052;SDS011;25758;48.200;16.338;2022-09-13T14:57:55;1.30;;;0.88;;
40052;SDS011;25758;48.200;16.338;2022-09-13T15:00:25;7.78;;;1.38;;
40052;SDS011;25758;48.200;16.338;2022-09-13T15:02:56;5.07;;;1.63;;
40052;SDS011;25758;48.200;16.338;2022-09-13T15:05:30;3.38;;;1.05;;
40052;SDS011;25758;48.200;16.338;2022-09-13T15:07:57;4.55;;;1.33;;
40052;SDS011;25758;48.200;16.338;2022-09-13T15:10:25;6.47;;;1.45;;
40052;SDS011;25758;48.200;16.338;2022-09-13T15:18:20;7.20;;;1.35;;
40052;SDS011;25758;48.200;16.338;2022-09-13T15:20:56;4.70;;;1.20;;
40052;SDS011;25758;48.200;16.338;2022-09-13T15:23:40;3.50;;;1.95;;
40052;SDS011;25758;48.200;16.338;2022-09-13T15:26:19;2.77;;;1.00;;
40052;SDS011;25758;48.200;16.338;2022-09-13T15:28:58;2.03;;;0.90;;
40052;SDS011;25758;48.200;16.338;2022-09-13T15:31:31;3.30;;;1.20;;
40052;SDS011;25758;48.200;16.338;2022-09-13T15:36:46;2.60;;;1.42;;
40052;SDS011;25758;48.200;16.338;2022-09-13T15:39:46;6.35;;;1.15;;
40052;SDS011;25758;48.200;16.338;2022-09-13T15:42:26;8.63;;;1.63;;
40052;SDS011;25758;48.200;16.338;2022-09-13T15:44:51;4.68;;;0.73;;
40052;SDS011;25758;48.200;16.338;2022-09-13T15:47:17;3.13;;;0.80;;
40052;SDS011;25758;48.200;16.338;2022-09-13T15:49:47;4.45;;;1.20;;
40052;SDS011;25758;48.200;16.338;2022-09-13T15:52:15;3.95;;;0.82;;
40052;SDS011;25758;48.200;16.338;2022-09-13T15:54:41;3.33;;;1.27;;
40052;SDS011;25758;48.200;16.338;2022-09-13T15:57:17;4.82;;;1.50;;
40052;SDS011;25758;48.200;16.338;2022-09-13T15:59:46;4.00;;;0.77;;
40052;SDS011;25758;48.200;16.338;2022-09-13T16:02:15;1.98;;;1.25;;
40052;SDS011;25758;48.200;16.338;2022-09-13T16:04:43;3.67;;;1.05;;
40052;SDS011;25758;48.200;16.338;2022-09-13T16:07:09;7.72;;;1.20;;
40052;SDS011;25758;48.200;16.338;2022-09-13T16:09:37;5.82;;;1.27;;
40052;SDS011;25758;48.200;16.338;2022-09-13T16:12:03;3.38;;;1.10;;
40052;SDS011;25758;48.200;16.338;2022-09-13T16:14:29;4.82;;;1.27;;
40052;SDS011;25758;48.200;16.338;2022-09-13T16:16:55;4.20;;;1.27;;
40052;SDS011;25758;48.200;16.338;2022-09-13T16:19:21;3.55;;;0.82;;
40052;SDS011;25758;48.200;16.338;2022-09-13T16:21:49;1.35;;;0.70;;
40052;SDS011;25758;48.200;16.338;2022-09-13T16:24:15;2.80;;;1.40;;
40052;SDS011;25758;48.200;16.338;2022-09-13T16:26:41;6.93;;;0.90;;
40052;SDS011;25758;48.200;16.338;2022-09-13T16:29:08;7.88;;;1.50;;
40052;SDS011;25758;48.200;16.338;2022-09-13T16:31:35;15.98;;;1.30;;
40052;SDS011;25758;48.200;16.338;2022-09-13T16:34:01;5.90;;;1.83;;
40052;SDS011;25758;48.200;16.338;2022-09-13T16:36:26;2.63;;;0.90;;
40052;SDS011;25758;48.200;16.338;2022-09-13T16:38:53;6.53;;;1.30;;
40052;SDS011;25758;48.200;16.338;2022-09-13T16:41:20;6.30;;;2.30;;
40052;SDS011;25758;48.200;16.338;2022-09-13T16:43:46;6.95;;;1.17;;
40052;SDS011;25758;48.200;16.338;2022-09-13T16:46:12;8.02;;;1.80;;
40052;SDS011;25758;48.200;16.338;2022-09-13T16:48:39;4.10;;;1.40;;
40052;SDS011;25758;48.200;16.338;2022-09-13T16:51:06;2.97;;;1.08;;
40052;SDS011;25758;48.200;16.338;2022-09-13T16:53:34;8.38;;;1.10;;
40052;SDS011;25758;48.200;16.338;2022-09-13T16:56:09;2.17;;;1.02;;
40052;SDS011;25758;48.200;16.338;2022-09-13T16:58:40;4.93;;;2.30;;
40052;SDS011;25758;48.200;16.338;2022-09-13T17:01:11;6.65;;;1.38;;
40052;SDS011;25758;48.200;16.338;2022-09-13T17:03:38;3.42;;;1.20;;
40052;SDS011;25758;48.200;16.338;2022-09-13T17:06:08;1.88;;;1.25;;
40052;SDS011;25758;48.200;16.338;2022-09-13T17:08:36;9.00;;;2.30;;
40052;SDS011;25758;48.200;16.338;2022-09-13T17:11:04;3.08;;;1.30;;
40052;SDS011;25758;48.200;16.338;2022-09-13T17:13:31;2.85;;;1.35;;
40052;SDS011;25758;48.200;16.338;2022-09-13T17:15:57;3.97;;;1.20;;
40052;SDS011;25758;48.200;16.338;2022-09-13T17:18:23;3.90;;;1.55;;
40052;SDS011;25758;48.200;16.338;2022-09-13T17:20:49;5.25;;;1.67;;
40052;SDS011;25758;48.200;16.338;2022-09-13T17:23:15;3.50;;;1.00;;
40052;SDS011;25758;48.200;16.338;2022-09-13T17:25:45;4.53;;;1.25;;
40052;SDS011;25758;48.200;16.338;2022-09-13T17:28:13;4.60;;;1.73;;
40052;SDS011;25758;48.200;16.338;2022-09-13T17:30:40;3.38;;;1.30;;
40052;SDS011;25758;48.200;16.338;2022-09-13T17:33:06;2.85;;;1.38;;
40052;SDS011;25758;48.200;16.338;2022-09-13T17:35:32;5.68;;;1.55;;
40052;SDS011;25758;48.200;16.338;2022-09-13T17:37:59;3.08;;;1.10;;
40052;SDS011;25758;48.200;16.338;2022-09-13T17:40:26;5.75;;;1.30;;
40052;SDS011;25758;48.200;16.338;2022-09-13T17:42:52;7.95;;;1.40;;
40052;SDS011;25758;48.200;16.338;2022-09-13T17:45:18;9.70;;;1.20;;
40052;SDS011;25758;48.200;16.338;2022-09-13T17:47:44;2.25;;;0.93;;
40052;SDS011;25758;48.200;16.338;2022-09-13T17:50:11;12.77;;;1.20;;
40052;SDS011;25758;48.200;16.338;2022-09-13T17:52:37;5.47;;;1.65;;
40052;SDS011;25758;48.200;16.338;2022-09-13T17:55:02;3.88;;;1.40;;
40052;SDS011;25758;48.200;16.338;2022-09-13T17:57:28;3.03;;;1.58;;
40052;SDS011;25758;48.200;16.338;2022-09-13T17:59:54;4.22;;;1.83;;
40052;SDS011;25758;48.200;16.338;2022-09-13T18:02:20;5.18;;;1.63;;
40052;SDS011;25758;48.200;16.338;2022-09-13T18:04:47;2.50;;;1.20;;
40052;SDS011;25758;48.200;16.338;2022-09-13T18:07:14;2.83;;;1.40;;
40052;SDS011;25758;48.200;16.338;2022-09-13T18:09:40;6.70;;;1.10;;
40052;SDS011;25758;48.200;16.338;2022-09-13T18:12:07;3.80;;;1.25;;
40052;SDS011;25758;48.200;16.338;2022-09-13T18:14:33;11.45;;;1.63;;
40052;SDS011;25758;48.200;16.338;2022-09-13T18:16:59;11.68;;;1.40;;
40052;SDS011;25758;48.200;16.338;2022-09-13T18:19:25;7.10;;;1.48;;
40052;SDS011;25758;48.200;16.338;2022-09-13T18:21:51;5.25;;;1.33;;